sensor_id;sensor_type;location;lat;lon;timestamp;P1;durP1;ratioP1;P2;durP2;ratioP2
83306;SDS011;73223;48.584;13.460;2023-12-20T00:00:34;22.98;;;7.18;;
83306;SDS011;73223;48.584;13.460;2023-12-20T00:03:02;13.80;;;6.07;;
83306;SDS011;73223;48.584;13.460;2023-12-20T00:05:29;44.78;;;7.25;;
83306;SDS011;73223;48.584;13.460;2023-12-20T00:08:00;15.43;;;6.18;;
83306;SDS011;73223;48.584;13.460;2023-12-20T00:10:28;12.38;;;5.82;;
83306;SDS011;73223;48.584;13.460;2023-12-20T00:12:54;73.35;;;7.88;;
83306;SDS011;73223;48.584;13.460;2023-12-20T00:15:25;86.25;;;8.30;;
83306;SDS011;73223;48.584;13.460;2023-12-20T00:17:51;121.80;;;10.85;;
83306;SDS011;73223;48.584;13.460;2023-12-20T00:20:18;68.30;;;8.32;;
83306;SDS011;73223;48.584;13.460;2023-12-20T00:22:44;143.75;;;12.23;;
83306;SDS011;73223;48.584;13.460;2023-12-20T00:25:10;157.93;;;10.13;;
83306;SDS011;73223;48.584;13.460;2023-12-20T00:27:36;88.28;;;9.98;;
83306;SDS011;73223;48.584;13.460;2023-12-20T00:30:02;100.18;;;8.30;;
83306;SDS011;73223;48.584;13.460;2023-12-20T00:32:28;13.90;;;6.15;;
83306;SDS011;73223;48.584;13.460;2023-12-20T00:37:21;17.30;;;5.90;;
83306;SDS011;73223;48.584;13.460;2023-12-20T00:39:58;118.07;;;10.25;;
83306;SDS011;73223;48.584;13.460;2023-12-20T00:42:31;12.27;;;6.10;;
83306;SDS011;73223;48.584;13.460;2023-12-20T00:45:16;12.70;;;5.53;;
83306;SDS011;73223;48.584;13.460;2023-12-20T00:47:42;17.48;;;6.13;;
83306;SDS011;73223;48.584;13.460;2023-12-20T00:50:14;13.30;;;5.00;;
83306;SDS011;73223;48.584;13.460;2023-12-20T00:52:41;12.88;;;5.95;;
83306;SDS011;73223;48.584;13.460;2023-12-20T00:55:07;13.05;;;5.60;;
83306;SDS011;73223;48.584;13.460;2023-12-20T00:57:34;14.52;;;5.57;;
83306;SDS011;73223;48.584;13.460;2023-12-20T01:00:01;11.93;;;5.32;;
83306;SDS011;73223;48.584;13.460;2023-12-20T01:02:31;11.13;;;5.50;;
83306;SDS011;73223;48.584;13.460;2023-12-20T01:05:09;11.13;;;5.13;;
83306;SDS011;73223;48.584;13.460;2023-12-20T01:07:35;10.02;;;4.60;;
83306;SDS011;73223;48.584;13.460;2023-12-20T01:10:01;11.98;;;5.15;;
83306;SDS011;73223;48.584;13.460;2023-12-20T01:12:29;15.35;;;5.63;;
83306;SDS011;73223;48.584;13.460;2023-12-20T01:14:55;12.40;;;5.65;;
83306;SDS011;73223;48.584;13.460;2023-12-20T01:17:26;11.98;;;6.28;;
83306;SDS011;73223;48.584;13.460;2023-12-20T01:19:53;11.25;;;5.13;;
83306;SDS011;73223;48.584;13.460;2023-12-20T01:22:20;11.10;;;5.68;;
83306;SDS011;73223;48.584;13.460;2023-12-20T01:24:46;12.55;;;5.82;;
83306;SDS011;73223;48.584;13.460;2023-12-20T01:27:11;10.50;;;5.25;;
83306;SDS011;73223;48.584;13.460;2023-12-20T01:29:36;10.13;;;5.53;;
83306;SDS011;73223;48.584;13.460;2023-12-20T01:32:02;10.73;;;5.18;;
83306;SDS011;73223;48.584;13.460;2023-12-20T01:34:27;13.60;;;5.82;;
83306;SDS011;73223;48.584;13.460;2023-12-20T01:36:54;12.70;;;6.13;;
83306;SDS011;73223;48.584;13.460;2023-12-20T01:39:21;14.13;;;6.30;;
83306;SDS011;73223;48.584;13.460;2023-12-20T01:41:46;14.75;;;6.95;;
83306;SDS011;73223;48.584;13.460;2023-12-20T01:44:13;14.10;;;6.07;;
83306;SDS011;73223;48.584;13.460;2023-12-20T01:46:39;13.73;;;6.68;;
83306;SDS011;73223;48.584;13.460;2023-12-20T01:49:05;16.02;;;7.70;;
83306;SDS011;73223;48.584;13.460;2023-12-20T01:51:31;14.82;;;8.05;;
83306;SDS011;73223;48.584;13.460;2023-12-20T01:53:59;17.33;;;8.77;;
83306;SDS011;73223;48.584;13.460;2023-12-20T01:56:26;18.63;;;8.25;;
83306;SDS011;73223;48.584;13.460;2023-12-20T01:58:54;22.45;;;8.27;;
83306;SDS011;73223;48.584;13.460;2023-12-20T02:01:21;16.92;;;7.50;;
83306;SDS011;73223;48.584;13.460;2023-12-20T02:03:48;18.00;;;6.90;;
83306;SDS011;73223;48.584;13.460;2023-12-20T02:06:16;15.00;;;7.95;;
83306;SDS011;73223;48.584;13.460;2023-12-20T02:08:44;15.93;;;8.25;;
83306;SDS011;73223;48.584;13.460;2023-12-20T02:11:10;14.07;;;7.35;;
83306;SDS011;73223;48.584;13.460;2023-12-20T02:13:35;15.82;;;6.50;;
83306;SDS011;73223;48.584;13.460;2023-12-20T02:16:01;13.63;;;6.07;;
83306;SDS011;73223;48.584;13.460;2023-12-20T02:18:27;14.25;;;7.32;;
83306;SDS011;73223;48.584;13.460;2023-12-20T02:20:53;12.85;;;6.38;;
83306;SDS011;73223;48.584;13.460;2023-12-20T02:23:18;12.10;;;5.95;;
83306;SDS011;73223;48.584;13.460;2023-12-20T02:25:45;14.82;;;6.32;;
83306;SDS011;73223;48.584;13.460;2023-12-20T02:28:11;14.07;;;6.22;;
83306;SDS011;73223;48.584;13.460;2023-12-20T02:30:37;12.57;;;6.30;;
83306;SDS011;73223;48.584;13.460;2023-12-20T02:33:03;13.30;;;5.90;;
83306;SDS011;73223;48.584;13.460;2023-12-20T02:35:33;11.73;;;6.07;;
83306;SDS011;73223;48.584;13.460;2023-12-20T02:37:59;12.10;;;6.07;;
83306;SDS011;73223;48.584;13.460;2023-12-20T02:40:27;17.88;;;6.00;;
83306;SDS011;73223;48.584;13.460;2023-12-20T02:42:52;15.32;;;6.97;;
83306;SDS011;73223;48.584;13.460;2023-12-20T02:45:18;12.18;;;6.10;;
83306;SDS011;73223;48.584;13.460;2023-12-20T02:47:45;11.00;;;5.85;;
83306;SDS011;73223;48.584;13.460;2023-12-20T02:50:10;13.95;;;5.93;;
83306;SDS011;73223;48.584;13.460;2023-12-20T02:52:36;13.18;;;5.82;;
83306;SDS011;73223;48.584;13.460;2023-12-20T02:55:03;14.60;;;6.38;;
83306;SDS011;73223;48.584;13.460;2023-12-20T02:57:29;14.70;;;7.53;;
83306;SDS011;73223;48.584;13.460;2023-12-20T02:59:54;14.02;;;6.57;;
83306;SDS011;73223;48.584;13.460;2023-12-20T03:02:23;13.07;;;6.53;;
83306;SDS011;73223;48.584;13.460;2023-12-20T03:04:50;13.45;;;6.40;;
83306;SDS011;73223;48.584;13.460;2023-12-20T03:07:18;14.85;;;6.13;;
83306;SDS011;73223;48.584;13.460;2023-12-20T03:09:43;13.00;;;6.00;;
83306;SDS011;73223;48.584;13.460;2023-12-20T03:12:09;12.25;;;6.00;;
83306;SDS011;73223;48.584;13.460;2023-12-20T03:14:34;12.38;;;5.82;;
83306;SDS011;73223;48.584;13.460;2023-12-20T03:17:01;12.82;;;5.85;;
83306;SDS011;73223;48.584;13.460;2023-12-20T03:19:27;11.70;;;5.95;;
83306;SDS011;73223;48.584;13.460;2023-12-20T03:21:55;12.93;;;6.35;;
83306;SDS011;73223;48.584;13.460;2023-12-20T03:24:20;13.52;;;6.30;;
83306;SDS011;73223;48.584;13.460;2023-12-20T03:26:47;12.90;;;6.63;;
83306;SDS011;73223;48.584;13.460;2023-12-20T03:29:13;11.98;;;6.10;;
83306;SDS011;73223;48.584;13.460;2023-12-20T03:31:40;15.05;;;6.22;;
83306;SDS011;73223;48.584;13.460;2023-12-20T03:34:05;12.82;;;6.68;;
83306;SDS011;73223;48.584;13.460;2023-12-20T03:36:33;11.77;;;5.85;;
83306;SDS011;73223;48.584;13.460;2023-12-20T03:39:00;12.50;;;6.53;;
83306;SDS011;73223;48.584;13.460;2023-12-20T03:41:27;13.43;;;6.57;;
83306;SDS011;73223;48.584;13.460;2023-12-20T03:43:53;13.25;;;6.78;;
83306;SDS011;73223;48.584;13.460;2023-12-20T03:46:19;13.93;;;6.85;;
83306;SDS011;73223;48.584;13.460;2023-12-20T03:48:44;13.93;;;7.30;;
83306;SDS011;73223;48.584;13.460;2023-12-20T03:51:09;13.23;;;6.88;;
83306;SDS011;73223;48.584;13.460;2023-12-20T03:56:03;11.93;;;6.00;;
83306;SDS011;73223;48.584;13.460;2023-12-20T03:58:28;15.05;;;7.25;;
83306;SDS011;73223;48.584;13.460;2023-12-20T04:00:54;12.98;;;6.35;;
83306;SDS011;73223;48.584;13.460;2023-12-20T04:03:19;13.18;;;6.70;;
83306;SDS011;73223;48.584;13.460;2023-12-20T04:05:44;14.25;;;6.90;;
83306;SDS011;73223;48.584;13.460;2023-12-20T04:08:11;12.07;;;6.28;;
83306;SDS011;73223;48.584;13.460;2023-12-20T04:10:40;13.25;;;6.10;;
83306;SDS011;73223;48.584;13.460;2023-12-20T04:13:08;13.32;;;6.13;;
83306;SDS011;73223;48.584;13.460;2023-12-20T04:15:34;12.45;;;6.05;;
83306;SDS011;73223;48.584;13.460;2023-12-20T04:18:00;18.02;;;7.22;;
83306;SDS011;73223;48.584;13.460;2023-12-20T04:20:26;15.50;;;6.72;;
83306;SDS011;73223;48.584;13.460;2023-12-20T04:22:52;14.52;;;6.88;;
83306;SDS011;73223;48.584;13.460;2023-12-20T04:25:19;13.43;;;6.90;;
83306;SDS011;73223;48.584;13.460;2023-12-20T04:27:54;13.77;;;6.72;;
83306;SDS011;73223;48.584;13.460;2023-12-20T04:30:19;13.55;;;7.03;;
83306;SDS011;73223;48.584;13.460;2023-12-20T04:32:50;14.57;;;6.90;;
83306;SDS011;73223;48.584;13.460;2023-12-20T04:35:16;13.82;;;6.43;;
83306;SDS011;73223;48.584;13.460;2023-12-20T04:37:44;14.98;;;6.88;;
83306;SDS011;73223;48.584;13.460;2023-12-20T04:40:14;16.00;;;7.15;;
83306;SDS011;73223;48.584;13.460;2023-12-20T04:42:40;16.80;;;7.10;;
83306;SDS011;73223;48.584;13.460;2023-12-20T04:45:05;12.98;;;6.70;;
83306;SDS011;73223;48.584;13.460;2023-12-20T04:47:32;13.18;;;6.55;;
83306;SDS011;73223;48.584;13.460;2023-12-20T04:50:00;14.90;;;6.25;;
83306;SDS011;73223;48.584;13.460;2023-12-20T04:52:27;15.50;;;7.22;;
83306;SDS011;73223;48.584;13.460;2023-12-20T04:54:55;14.85;;;7.28;;
83306;SDS011;73223;48.584;13.460;2023-12-20T04:57:22;14.13;;;6.85;;
83306;SDS011;73223;48.584;13.460;2023-12-20T04:59:48;14.98;;;7.65;;
83306;SDS011;73223;48.584;13.460;2023-12-20T05:02:15;14.07;;;7.10;;
83306;SDS011;73223;48.584;13.460;2023-12-20T05:04:50;14.27;;;6.57;;
83306;SDS011;73223;48.584;13.460;2023-12-20T05:07:16;14.07;;;6.95;;
83306;SDS011;73223;48.584;13.460;2023-12-20T05:09:45;13.10;;;6.32;;
83306;SDS011;73223;48.584;13.460;2023-12-20T05:12:39;13.80;;;6.45;;
83306;SDS011;73223;48.584;13.460;2023-12-20T05:15:13;13.45;;;6.70;;
83306;SDS011;73223;48.584;13.460;2023-12-20T05:17:44;15.23;;;7.07;;
83306;SDS011;73223;48.584;13.460;2023-12-20T05:20:12;16.05;;;7.20;;
83306;SDS011;73223;48.584;13.460;2023-12-20T05:22:46;13.27;;;7.00;;
83306;SDS011;73223;48.584;13.460;2023-12-20T05:25:51;16.60;;;7.03;;
83306;SDS011;73223;48.584;13.460;2023-12-20T05:28:31;17.35;;;7.25;;
83306;SDS011;73223;48.584;13.460;2023-12-20T05:31:14;15.70;;;7.15;;
83306;SDS011;73223;48.584;13.460;2023-12-20T05:33:49;16.27;;;8.02;;
83306;SDS011;73223;48.584;13.460;2023-12-20T05:36:22;13.73;;;7.80;;
83306;SDS011;73223;48.584;13.460;2023-12-20T05:38:59;15.10;;;7.72;;
83306;SDS011;73223;48.584;13.460;2023-12-20T05:41:52;13.15;;;7.10;;
83306;SDS011;73223;48.584;13.460;2023-12-20T05:44:26;15.18;;;8.35;;
83306;SDS011;73223;48.584;13.460;2023-12-20T05:46:54;16.10;;;7.60;;
83306;SDS011;73223;48.584;13.460;2023-12-20T05:49:28;14.57;;;6.95;;
83306;SDS011;73223;48.584;13.460;2023-12-20T05:51:56;14.05;;;6.88;;
83306;SDS011;73223;48.584;13.460;2023-12-20T05:54:25;12.75;;;6.30;;
83306;SDS011;73223;48.584;13.460;2023-12-20T05:56:59;14.40;;;7.05;;
83306;SDS011;73223;48.584;13.460;2023-12-20T05:59:38;15.90;;;7.30;;
83306;SDS011;73223;48.584;13.460;2023-12-20T06:02:15;14.45;;;7.38;;
83306;SDS011;73223;48.584;13.460;2023-12-20T06:04:44;16.85;;;6.38;;
83306;SDS011;73223;48.584;13.460;2023-12-20T06:07:12;13.45;;;6.90;;
83306;SDS011;73223;48.584;13.460;2023-12-20T06:09:42;13.43;;;6.43;;
83306;SDS011;73223;48.584;13.460;2023-12-20T06:12:20;14.25;;;7.00;;
83306;SDS011;73223;48.584;13.460;2023-12-20T06:14:46;14.60;;;8.40;;
83306;SDS011;73223;48.584;13.460;2023-12-20T06:17:16;16.05;;;8.07;;
83306;SDS011;73223;48.584;13.460;2023-12-20T06:19:42;15.07;;;7.95;;
83306;SDS011;73223;48.584;13.460;2023-12-20T06:22:15;11.93;;;6.47;;
83306;SDS011;73223;48.584;13.460;2023-12-20T06:24:42;21.35;;;10.40;;
83306;SDS011;73223;48.584;13.460;2023-12-20T06:27:10;19.63;;;8.90;;
83306;SDS011;73223;48.584;13.460;2023-12-20T06:29:38;26.10;;;11.32;;
83306;SDS011;73223;48.584;13.460;2023-12-20T06:32:26;19.08;;;8.23;;
83306;SDS011;73223;48.584;13.460;2023-12-20T06:35:20;45.95;;;10.85;;
83306;SDS011;73223;48.584;13.460;2023-12-20T06:37:46;36.53;;;8.87;;
83306;SDS011;73223;48.584;13.460;2023-12-20T06:40:12;45.45;;;10.30;;
83306;SDS011;73223;48.584;13.460;2023-12-20T06:42:53;14.73;;;6.80;;
83306;SDS011;73223;48.584;13.460;2023-12-20T06:45:34;15.48;;;6.95;;
83306;SDS011;73223;48.584;13.460;2023-12-20T06:48:27;14.00;;;6.55;;
83306;SDS011;73223;48.584;13.460;2023-12-20T06:51:23;13.07;;;6.93;;
83306;SDS011;73223;48.584;13.460;2023-12-20T06:54:19;10.23;;;5.45;;
83306;SDS011;73223;48.584;13.460;2023-12-20T06:56:45;20.67;;;8.95;;
83306;SDS011;73223;48.584;13.460;2023-12-20T06:59:10;16.43;;;7.90;;
83306;SDS011;73223;48.584;13.460;2023-12-20T07:01:35;13.95;;;6.97;;
83306;SDS011;73223;48.584;13.460;2023-12-20T07:04:00;13.50;;;6.47;;
83306;SDS011;73223;48.584;13.460;2023-12-20T07:06:26;13.33;;;6.43;;
83306;SDS011;73223;48.584;13.460;2023-12-20T07:08:52;15.20;;;5.90;;
83306;SDS011;73223;48.584;13.460;2023-12-20T07:11:17;12.75;;;5.93;;
83306;SDS011;73223;48.584;13.460;2023-12-20T07:13:43;16.15;;;7.00;;
83306;SDS011;73223;48.584;13.460;2023-12-20T07:16:09;13.20;;;5.63;;
83306;SDS011;73223;48.584;13.460;2023-12-20T07:18:34;17.33;;;9.47;;
83306;SDS011;73223;48.584;13.460;2023-12-20T07:20:59;16.60;;;7.27;;
83306;SDS011;73223;48.584;13.460;2023-12-20T07:23:25;14.38;;;6.72;;
83306;SDS011;73223;48.584;13.460;2023-12-20T07:25:51;12.45;;;5.30;;
83306;SDS011;73223;48.584;13.460;2023-12-20T07:28:16;12.40;;;5.00;;
83306;SDS011;73223;48.584;13.460;2023-12-20T07:30:49;12.75;;;6.15;;
83306;SDS011;73223;48.584;13.460;2023-12-20T07:33:16;13.95;;;6.20;;
83306;SDS011;73223;48.584;13.460;2023-12-20T07:35:41;11.38;;;5.68;;
83306;SDS011;73223;48.584;13.460;2023-12-20T07:38:06;14.02;;;6.43;;
83306;SDS011;73223;48.584;13.460;2023-12-20T07:40:32;10.60;;;5.37;;
83306;SDS011;73223;48.584;13.460;2023-12-20T07:42:57;10.65;;;5.65;;
83306;SDS011;73223;48.584;13.460;2023-12-20T07:45:23;12.95;;;6.45;;
83306;SDS011;73223;48.584;13.460;2023-12-20T07:47:48;13.48;;;6.18;;
83306;SDS011;73223;48.584;13.460;2023-12-20T07:50:15;13.98;;;6.43;;
83306;SDS011;73223;48.584;13.460;2023-12-20T07:52:40;14.13;;;6.25;;
83306;SDS011;73223;48.584;13.460;2023-12-20T07:55:05;15.13;;;6.83;;
83306;SDS011;73223;48.584;13.460;2023-12-20T07:57:31;24.95;;;6.80;;
83306;SDS011;73223;48.584;13.460;2023-12-20T07:59:56;14.50;;;7.67;;
83306;SDS011;73223;48.584;13.460;2023-12-20T08:02:21;12.83;;;6.13;;
83306;SDS011;73223;48.584;13.460;2023-12-20T08:04:47;16.90;;;6.43;;
83306;SDS011;73223;48.584;13.460;2023-12-20T08:07:12;99.40;;;9.27;;
83306;SDS011;73223;48.584;13.460;2023-12-20T08:09:37;119.07;;;9.48;;
83306;SDS011;73223;48.584;13.460;2023-12-20T08:12:03;19.30;;;7.25;;
83306;SDS011;73223;48.584;13.460;2023-12-20T08:14:28;55.72;;;7.68;;
83306;SDS011;73223;48.584;13.460;2023-12-20T08:16:54;33.43;;;12.83;;
83306;SDS011;73223;48.584;13.460;2023-12-20T08:19:19;91.30;;;28.87;;
83306;SDS011;73223;48.584;13.460;2023-12-20T08:21:44;22.30;;;9.45;;
83306;SDS011;73223;48.584;13.460;2023-12-20T08:24:09;45.92;;;9.35;;
83306;SDS011;73223;48.584;13.460;2023-12-20T08:26:35;30.53;;;6.90;;
83306;SDS011;73223;48.584;13.460;2023-12-20T08:29:00;27.47;;;7.13;;
83306;SDS011;73223;48.584;13.460;2023-12-20T08:31:25;48.28;;;8.25;;
83306;SDS011;73223;48.584;13.460;2023-12-20T08:33:51;9.80;;;4.07;;
83306;SDS011;73223;48.584;13.460;2023-12-20T08:36:18;11.13;;;5.85;;
83306;SDS011;73223;48.584;13.460;2023-12-20T08:38:46;10.48;;;4.75;;
83306;SDS011;73223;48.584;13.460;2023-12-20T08:41:12;11.80;;;5.20;;
83306;SDS011;73223;48.584;13.460;2023-12-20T08:43:37;9.07;;;4.72;;
83306;SDS011;73223;48.584;13.460;2023-12-20T08:46:05;13.48;;;5.25;;
83306;SDS011;73223;48.584;13.460;2023-12-20T08:48:30;10.60;;;4.63;;
83306;SDS011;73223;48.584;13.460;2023-12-20T08:50:55;16.20;;;4.97;;
83306;SDS011;73223;48.584;13.460;2023-12-20T08:53:21;11.77;;;4.90;;
83306;SDS011;73223;48.584;13.460;2023-12-20T08:55:46;9.65;;;4.28;;
83306;SDS011;73223;48.584;13.460;2023-12-20T08:58:11;11.45;;;4.85;;
83306;SDS011;73223;48.584;13.460;2023-12-20T09:00:37;15.07;;;7.50;;
83306;SDS011;73223;48.584;13.460;2023-12-20T09:03:03;13.77;;;7.85;;
83306;SDS011;73223;48.584;13.460;2023-12-20T09:05:29;11.07;;;4.28;;
83306;SDS011;73223;48.584;13.460;2023-12-20T09:07:55;7.30;;;3.72;;
83306;SDS011;73223;48.584;13.460;2023-12-20T09:10:20;8.33;;;4.40;;
83306;SDS011;73223;48.584;13.460;2023-12-20T09:12:50;10.38;;;3.92;;
83306;SDS011;73223;48.584;13.460;2023-12-20T09:15:17;8.98;;;3.88;;
83306;SDS011;73223;48.584;13.460;2023-12-20T09:17:42;8.55;;;3.40;;
83306;SDS011;73223;48.584;13.460;2023-12-20T09:20:08;7.75;;;3.55;;
83306;SDS011;73223;48.584;13.460;2023-12-20T09:22:34;6.88;;;2.83;;
83306;SDS011;73223;48.584;13.460;2023-12-20T09:25:00;9.25;;;3.30;;
83306;SDS011;73223;48.584;13.460;2023-12-20T09:27:26;7.65;;;3.28;;
83306;SDS011;73223;48.584;13.460;2023-12-20T09:29:52;8.73;;;3.55;;
83306;SDS011;73223;48.584;13.460;2023-12-20T09:32:18;8.18;;;3.20;;
83306;SDS011;73223;48.584;13.460;2023-12-20T09:34:45;8.15;;;3.20;;
83306;SDS011;73223;48.584;13.460;2023-12-20T09:37:10;8.55;;;3.63;;
83306;SDS011;73223;48.584;13.460;2023-12-20T09:39:35;8.80;;;3.27;;
83306;SDS011;73223;48.584;13.460;2023-12-20T09:42:01;7.93;;;3.00;;
83306;SDS011;73223;48.584;13.460;2023-12-20T09:44:27;9.60;;;2.88;;
83306;SDS011;73223;48.584;13.460;2023-12-20T09:46:54;7.85;;;3.72;;
83306;SDS011;73223;48.584;13.460;2023-12-20T09:49:20;6.85;;;2.70;;
83306;SDS011;73223;48.584;13.460;2023-12-20T09:51:47;7.18;;;2.65;;
83306;SDS011;73223;48.584;13.460;2023-12-20T09:54:13;8.70;;;2.90;;
83306;SDS011;73223;48.584;13.460;2023-12-20T09:56:40;9.63;;;2.22;;
83306;SDS011;73223;48.584;13.460;2023-12-20T09:59:05;6.38;;;2.60;;
83306;SDS011;73223;48.584;13.460;2023-12-20T10:01:30;6.32;;;2.83;;
83306;SDS011;73223;48.584;13.460;2023-12-20T10:03:56;6.53;;;2.60;;
83306;SDS011;73223;48.584;13.460;2023-12-20T10:06:23;6.50;;;2.30;;
83306;SDS011;73223;48.584;13.460;2023-12-20T10:08:48;5.35;;;2.03;;
83306;SDS011;73223;48.584;13.460;2023-12-20T10:11:14;7.30;;;2.10;;
83306;SDS011;73223;48.584;13.460;2023-12-20T10:13:42;5.35;;;1.75;;
83306;SDS011;73223;48.584;13.460;2023-12-20T10:16:08;5.03;;;1.92;;
83306;SDS011;73223;48.584;13.460;2023-12-20T10:18:34;6.15;;;2.15;;
83306;SDS011;73223;48.584;13.460;2023-12-20T10:21:01;4.25;;;1.52;;
83306;SDS011;73223;48.584;13.460;2023-12-20T10:23:26;5.03;;;1.60;;
83306;SDS011;73223;48.584;13.460;2023-12-20T10:25:58;6.53;;;2.35;;
83306;SDS011;73223;48.584;13.460;2023-12-20T10:28:24;5.75;;;2.22;;
83306;SDS011;73223;48.584;13.460;2023-12-20T10:30:52;7.03;;;1.92;;
83306;SDS011;73223;48.584;13.460;2023-12-20T10:33:25;6.30;;;2.53;;
83306;SDS011;73223;48.584;13.460;2023-12-20T10:35:51;6.32;;;2.25;;
83306;SDS011;73223;48.584;13.460;2023-12-20T10:38:17;5.18;;;1.92;;
83306;SDS011;73223;48.584;13.460;2023-12-20T10:40:42;5.83;;;2.00;;
83306;SDS011;73223;48.584;13.460;2023-12-20T10:43:10;6.38;;;2.30;;
83306;SDS011;73223;48.584;13.460;2023-12-20T10:45:36;7.00;;;2.33;;
83306;SDS011;73223;48.584;13.460;2023-12-20T10:48:02;7.10;;;2.53;;
83306;SDS011;73223;48.584;13.460;2023-12-20T10:50:28;6.90;;;2.78;;
83306;SDS011;73223;48.584;13.460;2023-12-20T10:52:54;6.07;;;2.70;;
83306;SDS011;73223;48.584;13.460;2023-12-20T10:55:21;6.40;;;2.05;;
83306;SDS011;73223;48.584;13.460;2023-12-20T11:00:16;5.70;;;2.05;;
83306;SDS011;73223;48.584;13.460;2023-12-20T11:02:43;5.00;;;2.10;;
83306;SDS011;73223;48.584;13.460;2023-12-20T11:08:08;5.63;;;2.42;;
83306;SDS011;73223;48.584;13.460;2023-12-20T11:11:00;5.78;;;1.73;;
83306;SDS011;73223;48.584;13.460;2023-12-20T11:13:32;5.45;;;1.80;;
83306;SDS011;73223;48.584;13.460;2023-12-20T11:16:03;7.82;;;2.28;;
83306;SDS011;73223;48.584;13.460;2023-12-20T11:18:29;5.60;;;1.77;;
83306;SDS011;73223;48.584;13.460;2023-12-20T11:20:55;5.05;;;1.80;;
83306;SDS011;73223;48.584;13.460;2023-12-20T11:23:25;5.70;;;2.00;;
83306;SDS011;73223;48.584;13.460;2023-12-20T11:25:55;5.07;;;2.10;;
83306;SDS011;73223;48.584;13.460;2023-12-20T11:28:23;5.82;;;2.05;;
83306;SDS011;73223;48.584;13.460;2023-12-20T11:30:54;5.53;;;1.75;;
83306;SDS011;73223;48.584;13.460;2023-12-20T11:33:21;5.78;;;2.00;;
83306;SDS011;73223;48.584;13.460;2023-12-20T11:35:50;5.45;;;1.92;;
83306;SDS011;73223;48.584;13.460;2023-12-20T11:38:16;5.53;;;1.92;;
83306;SDS011;73223;48.584;13.460;2023-12-20T11:40:42;4.68;;;1.77;;
83306;SDS011;73223;48.584;13.460;2023-12-20T11:43:08;5.57;;;1.95;;
83306;SDS011;73223;48.584;13.460;2023-12-20T11:45:34;5.85;;;2.03;;
83306;SDS011;73223;48.584;13.460;2023-12-20T11:48:00;5.00;;;1.67;;
83306;SDS011;73223;48.584;13.460;2023-12-20T11:50:27;5.20;;;2.17;;
83306;SDS011;73223;48.584;13.460;2023-12-20T11:52:53;7.70;;;2.45;;
83306;SDS011;73223;48.584;13.460;2023-12-20T11:55:20;5.88;;;2.20;;
83306;SDS011;73223;48.584;13.460;2023-12-20T11:57:46;5.07;;;1.65;;
83306;SDS011;73223;48.584;13.460;2023-12-20T12:00:12;6.15;;;2.17;;
83306;SDS011;73223;48.584;13.460;2023-12-20T12:05:03;6.33;;;2.00;;
83306;SDS011;73223;48.584;13.460;2023-12-20T12:07:30;6.68;;;2.22;;
83306;SDS011;73223;48.584;13.460;2023-12-20T12:09:56;6.15;;;2.60;;
83306;SDS011;73223;48.584;13.460;2023-12-20T12:12:21;6.07;;;2.15;;
83306;SDS011;73223;48.584;13.460;2023-12-20T12:14:47;6.13;;;2.15;;
83306;SDS011;73223;48.584;13.460;2023-12-20T12:17:13;8.43;;;2.30;;
83306;SDS011;73223;48.584;13.460;2023-12-20T12:19:42;5.05;;;2.15;;
83306;SDS011;73223;48.584;13.460;2023-12-20T12:22:10;5.82;;;2.08;;
83306;SDS011;73223;48.584;13.460;2023-12-20T12:24:42;5.25;;;1.90;;
83306;SDS011;73223;48.584;13.460;2023-12-20T12:27:09;8.05;;;2.47;;
83306;SDS011;73223;48.584;13.460;2023-12-20T12:29:34;6.80;;;2.70;;
83306;SDS011;73223;48.584;13.460;2023-12-20T12:32:00;4.55;;;1.90;;
83306;SDS011;73223;48.584;13.460;2023-12-20T12:34:29;7.07;;;2.30;;
83306;SDS011;73223;48.584;13.460;2023-12-20T12:36:55;5.55;;;1.70;;
83306;SDS011;73223;48.584;13.460;2023-12-20T12:39:22;6.10;;;2.17;;
83306;SDS011;73223;48.584;13.460;2023-12-20T12:41:50;5.85;;;1.50;;
83306;SDS011;73223;48.584;13.460;2023-12-20T12:44:15;5.00;;;1.50;;
83306;SDS011;73223;48.584;13.460;2023-12-20T12:46:40;3.85;;;1.33;;
83306;SDS011;73223;48.584;13.460;2023-12-20T12:49:06;3.67;;;1.42;;
83306;SDS011;73223;48.584;13.460;2023-12-20T12:51:31;3.90;;;1.40;;
83306;SDS011;73223;48.584;13.460;2023-12-20T12:53:56;3.73;;;1.27;;
83306;SDS011;73223;48.584;13.460;2023-12-20T12:56:22;4.20;;;1.40;;
83306;SDS011;73223;48.584;13.460;2023-12-20T12:58:47;4.10;;;1.50;;
83306;SDS011;73223;48.584;13.460;2023-12-20T13:01:12;5.18;;;1.40;;
83306;SDS011;73223;48.584;13.460;2023-12-20T13:03:39;3.05;;;1.13;;
83306;SDS011;73223;48.584;13.460;2023-12-20T13:06:04;3.85;;;1.23;;
83306;SDS011;73223;48.584;13.460;2023-12-20T13:08:30;3.97;;;1.35;;
83306;SDS011;73223;48.584;13.460;2023-12-20T13:10:56;9.68;;;1.52;;
83306;SDS011;73223;48.584;13.460;2023-12-20T13:13:25;4.15;;;1.23;;
83306;SDS011;73223;48.584;13.460;2023-12-20T13:15:50;4.85;;;1.45;;
83306;SDS011;73223;48.584;13.460;2023-12-20T13:18:19;4.88;;;1.83;;
83306;SDS011;73223;48.584;13.460;2023-12-20T13:20:45;4.50;;;1.45;;
83306;SDS011;73223;48.584;13.460;2023-12-20T13:23:10;6.27;;;1.90;;
83306;SDS011;73223;48.584;13.460;2023-12-20T13:25:35;4.38;;;1.60;;
83306;SDS011;73223;48.584;13.460;2023-12-20T13:28:02;6.40;;;2.10;;
83306;SDS011;73223;48.584;13.460;2023-12-20T13:30:30;5.28;;;1.90;;
83306;SDS011;73223;48.584;13.460;2023-12-20T13:32:55;6.10;;;1.70;;
83306;SDS011;73223;48.584;13.460;2023-12-20T13:35:20;5.50;;;1.80;;
83306;SDS011;73223;48.584;13.460;2023-12-20T13:37:45;6.50;;;2.33;;
83306;SDS011;73223;48.584;13.460;2023-12-20T13:40:11;5.47;;;2.13;;
83306;SDS011;73223;48.584;13.460;2023-12-20T13:42:37;6.05;;;2.10;;
83306;SDS011;73223;48.584;13.460;2023-12-20T13:45:03;4.85;;;1.77;;
83306;SDS011;73223;48.584;13.460;2023-12-20T13:47:29;6.45;;;2.00;;
83306;SDS011;73223;48.584;13.460;2023-12-20T13:49:55;3.95;;;1.40;;
83306;SDS011;73223;48.584;13.460;2023-12-20T13:52:21;6.22;;;1.80;;
83306;SDS011;73223;48.584;13.460;2023-12-20T13:54:46;5.25;;;1.73;;
83306;SDS011;73223;48.584;13.460;2023-12-20T13:57:11;7.40;;;1.77;;
83306;SDS011;73223;48.584;13.460;2023-12-20T13:59:36;6.83;;;1.70;;
83306;SDS011;73223;48.584;13.460;2023-12-20T14:02:02;6.60;;;1.80;;
83306;SDS011;73223;48.584;13.460;2023-12-20T14:04:28;6.55;;;1.85;;
83306;SDS011;73223;48.584;13.460;2023-12-20T14:06:53;4.90;;;1.67;;
83306;SDS011;73223;48.584;13.460;2023-12-20T14:09:19;5.18;;;1.73;;
83306;SDS011;73223;48.584;13.460;2023-12-20T14:11:44;6.83;;;1.90;;
83306;SDS011;73223;48.584;13.460;2023-12-20T14:14:10;3.72;;;1.38;;
83306;SDS011;73223;48.584;13.460;2023-12-20T14:16:36;5.22;;;1.60;;
83306;SDS011;73223;48.584;13.460;2023-12-20T14:19:01;5.78;;;1.60;;
83306;SDS011;73223;48.584;13.460;2023-12-20T14:21:28;4.30;;;1.38;;
83306;SDS011;73223;48.584;13.460;2023-12-20T14:23:53;3.75;;;1.38;;
83306;SDS011;73223;48.584;13.460;2023-12-20T14:26:18;4.73;;;1.60;;
83306;SDS011;73223;48.584;13.460;2023-12-20T14:28:44;4.57;;;1.50;;
83306;SDS011;73223;48.584;13.460;2023-12-20T14:31:09;6.13;;;1.50;;
83306;SDS011;73223;48.584;13.460;2023-12-20T14:33:35;6.72;;;1.80;;
83306;SDS011;73223;48.584;13.460;2023-12-20T14:36:01;5.85;;;1.73;;
83306;SDS011;73223;48.584;13.460;2023-12-20T14:38:30;3.38;;;1.25;;
83306;SDS011;73223;48.584;13.460;2023-12-20T14:40:55;3.38;;;1.13;;